sensor_id;sensor_type;location;lat;lon;timestamp;P1;durP1;ratioP1;P2;durP2;ratioP2
69894;SDS011;57172;52.034;5.090;2023-03-20T00:03:55;19.90;;;7.07;;
69894;SDS011;57172;52.034;5.090;2023-03-20T00:06:24;20.52;;;6.60;;
69894;SDS011;57172;52.034;5.090;2023-03-20T00:08:53;17.48;;;6.32;;
69894;SDS011;57172;52.034;5.090;2023-03-20T00:13:56;19.05;;;6.20;;
69894;SDS011;57172;52.034;5.090;2023-03-20T00:16:29;17.48;;;5.95;;
69894;SDS011;57172;52.034;5.090;2023-03-20T00:18:58;11.50;;;5.38;;
69894;SDS011;57172;52.034;5.090;2023-03-20T00:21:24;13.55;;;5.38;;
69894;SDS011;57172;52.034;5.090;2023-03-20T00:23:53;11.37;;;4.70;;
69894;SDS011;57172;52.034;5.090;2023-03-20T00:26:20;9.60;;;4.30;;
69894;SDS011;57172;52.034;5.090;2023-03-20T00:28:51;11.52;;;4.55;;
69894;SDS011;57172;52.034;5.090;2023-03-20T00:31:26;11.43;;;4.80;;
69894;SDS011;57172;52.034;5.090;2023-03-20T00:33:55;12.63;;;4.63;;
69894;SDS011;57172;52.034;5.090;2023-03-20T00:36:25;10.77;;;4.67;;
69894;SDS011;57172;52.034;5.090;2023-03-20T00:38:53;12.07;;;4.70;;
69894;SDS011;57172;52.034;5.090;2023-03-20T00:41:25;11.90;;;4.95;;
69894;SDS011;57172;52.034;5.090;2023-03-20T00:44:01;10.85;;;4.80;;
69894;SDS011;57172;52.034;5.090;2023-03-20T00:46:33;13.38;;;4.78;;
69894;SDS011;57172;52.034;5.090;2023-03-20T00:49:04;12.03;;;4.30;;
69894;SDS011;57172;52.034;5.090;2023-03-20T00:51:31;6.88;;;3.75;;
69894;SDS011;57172;52.034;5.090;2023-03-20T00:53:58;11.55;;;4.90;;
69894;SDS011;57172;52.034;5.090;2023-03-20T00:59:02;8.88;;;3.97;;
69894;SDS011;57172;52.034;5.090;2023-03-20T01:01:29;12.73;;;4.73;;
69894;SDS011;57172;52.034;5.090;2023-03-20T01:03:58;11.93;;;4.68;;
69894;SDS011;57172;52.034;5.090;2023-03-20T01:06:26;11.73;;;4.80;;
69894;SDS011;57172;52.034;5.090;2023-03-20T01:08:54;9.70;;;4.82;;
69894;SDS011;57172;52.034;5.090;2023-03-20T01:11:24;11.05;;;4.88;;
69894;SDS011;57172;52.034;5.090;2023-03-20T01:13:51;15.47;;;5.33;;
69894;SDS011;57172;52.034;5.090;2023-03-20T01:16:19;10.88;;;4.80;;
69894;SDS011;57172;52.034;5.090;2023-03-20T01:18:48;11.93;;;5.03;;
69894;SDS011;57172;52.034;5.090;2023-03-20T01:21:16;12.88;;;4.82;;
69894;SDS011;57172;52.034;5.090;2023-03-20T01:23:43;13.43;;;5.13;;
69894;SDS011;57172;52.034;5.090;2023-03-20T01:26:17;14.73;;;5.20;;
69894;SDS011;57172;52.034;5.090;2023-03-20T01:29:02;18.70;;;5.65;;
69894;SDS011;57172;52.034;5.090;2023-03-20T01:31:31;15.57;;;5.80;;
69894;SDS011;57172;52.034;5.090;2023-03-20T01:33:58;11.35;;;5.10;;
69894;SDS011;57172;52.034;5.090;2023-03-20T01:36:25;13.82;;;5.65;;
69894;SDS011;57172;52.034;5.090;2023-03-20T01:38:54;17.00;;;5.83;;
69894;SDS011;57172;52.034;5.090;2023-03-20T01:41:23;14.32;;;5.68;;
69894;SDS011;57172;52.034;5.090;2023-03-20T01:43:51;12.77;;;5.95;;
69894;SDS011;57172;52.034;5.090;2023-03-20T01:51:46;17.47;;;6.73;;
69894;SDS011;57172;52.034;5.090;2023-03-20T01:54:15;15.32;;;5.93;;
69894;SDS011;57172;52.034;5.090;2023-03-20T01:57:02;18.08;;;6.15;;
69894;SDS011;57172;52.034;5.090;2023-03-20T01:59:35;16.40;;;6.70;;
69894;SDS011;57172;52.034;5.090;2023-03-20T02:02:24;18.90;;;7.22;;
69894;SDS011;57172;52.034;5.090;2023-03-20T02:05:01;16.73;;;7.13;;
69894;SDS011;57172;52.034;5.090;2023-03-20T02:07:32;20.83;;;7.63;;
69894;SDS011;57172;52.034;5.090;2023-03-20T02:10:03;24.55;;;8.38;;
69894;SDS011;57172;52.034;5.090;2023-03-20T02:12:40;22.38;;;8.35;;
69894;SDS011;57172;52.034;5.090;2023-03-20T02:15:10;24.67;;;9.32;;
69894;SDS011;57172;52.034;5.090;2023-03-20T02:18:00;22.23;;;9.27;;
69894;SDS011;57172;52.034;5.090;2023-03-20T02:20:33;24.73;;;9.80;;
69894;SDS011;57172;52.034;5.090;2023-03-20T02:29:16;23.08;;;9.65;;
69894;SDS011;57172;52.034;5.090;2023-03-20T02:35:37;25.05;;;10.15;;
69894;SDS011;57172;52.034;5.090;2023-03-20T02:41:34;26.95;;;10.48;;
69894;SDS011;57172;52.034;5.090;2023-03-20T02:52:24;21.85;;;10.20;;
69894;SDS011;57172;52.034;5.090;2023-03-20T02:55:19;23.73;;;9.13;;
69894;SDS011;57172;52.034;5.090;2023-03-20T03:00:31;26.67;;;10.00;;
69894;SDS011;57172;52.034;5.090;2023-03-20T03:03:23;23.65;;;10.00;;
69894;SDS011;57172;52.034;5.090;2023-03-20T03:11:44;28.10;;;11.13;;
69894;SDS011;57172;52.034;5.090;2023-03-20T03:14:58;27.80;;;9.50;;
69894;SDS011;57172;52.034;5.090;2023-03-20T03:17:13;23.25;;;10.15;;
69894;SDS011;57172;52.034;5.090;2023-03-20T03:19:44;25.48;;;10.52;;
69894;SDS011;57172;52.034;5.090;2023-03-20T03:22:17;26.42;;;9.90;;
69894;SDS011;57172;52.034;5.090;2023-03-20T03:24:49;28.17;;;10.85;;
69894;SDS011;57172;52.034;5.090;2023-03-20T03:27:32;24.10;;;9.90;;
69894;SDS011;57172;52.034;5.090;2023-03-20T03:30:12;24.27;;;10.15;;
69894;SDS011;57172;52.034;5.090;2023-03-20T03:32:48;26.60;;;9.95;;
69894;SDS011;57172;52.034;5.090;2023-03-20T03:35:22;24.60;;;9.25;;
69894;SDS011;57172;52.034;5.090;2023-03-20T03:40:40;26.87;;;9.07;;
69894;SDS011;57172;52.034;5.090;2023-03-20T03:45:45;24.88;;;10.18;;
69894;SDS011;57172;52.034;5.090;2023-03-20T03:48:21;26.70;;;10.00;;
69894;SDS011;57172;52.034;5.090;2023-03-20T03:50:53;25.27;;;10.50;;
69894;SDS011;57172;52.034;5.090;2023-03-20T03:53:30;20.67;;;8.53;;
69894;SDS011;57172;52.034;5.090;2023-03-20T03:56:01;24.10;;;10.32;;
69894;SDS011;57172;52.034;5.090;2023-03-20T03:58:36;32.15;;;10.43;;
69894;SDS011;57172;52.034;5.090;2023-03-20T04:01:10;23.15;;;9.73;;
69894;SDS011;57172;52.034;5.090;2023-03-20T04:03:50;21.70;;;8.55;;
69894;SDS011;57172;52.034;5.090;2023-03-20T04:06:21;22.13;;;9.77;;
69894;SDS011;57172;52.034;5.090;2023-03-20T04:08:49;23.15;;;9.82;;
69894;SDS011;57172;52.034;5.090;2023-03-20T04:11:23;21.52;;;10.35;;
69894;SDS011;57172;52.034;5.090;2023-03-20T04:13:51;25.17;;;10.90;;
69894;SDS011;57172;52.034;5.090;2023-03-20T04:16:19;28.80;;;10.15;;
69894;SDS011;57172;52.034;5.090;2023-03-20T04:18:48;20.03;;;9.07;;
69894;SDS011;57172;52.034;5.090;2023-03-20T04:21:16;23.40;;;10.85;;
69894;SDS011;57172;52.034;5.090;2023-03-20T04:23:44;28.35;;;11.85;;
69894;SDS011;57172;52.034;5.090;2023-03-20T04:26:12;20.60;;;10.07;;
69894;SDS011;57172;52.034;5.090;2023-03-20T04:28:39;26.27;;;11.70;;
69894;SDS011;57172;52.034;5.090;2023-03-20T04:31:19;26.80;;;12.03;;
69894;SDS011;57172;52.034;5.090;2023-03-20T04:34:12;24.27;;;11.38;;
69894;SDS011;57172;52.034;5.090;2023-03-20T04:36:55;28.10;;;12.32;;
69894;SDS011;57172;52.034;5.090;2023-03-20T04:39:28;23.65;;;11.80;;
69894;SDS011;57172;52.034;5.090;2023-03-20T04:41:55;25.50;;;12.68;;
69894;SDS011;57172;52.034;5.090;2023-03-20T04:44:22;24.27;;;12.93;;
69894;SDS011;57172;52.034;5.090;2023-03-20T04:46:49;25.48;;;12.50;;
69894;SDS011;57172;52.034;5.090;2023-03-20T04:49:16;26.20;;;13.02;;
69894;SDS011;57172;52.034;5.090;2023-03-20T04:51:44;17.40;;;9.27;;
69894;SDS011;57172;52.034;5.090;2023-03-20T04:54:12;23.83;;;11.98;;
69894;SDS011;57172;52.034;5.090;2023-03-20T04:56:40;23.27;;;12.50;;
69894;SDS011;57172;52.034;5.090;2023-03-20T04:59:16;25.50;;;11.43;;
69894;SDS011;57172;52.034;5.090;2023-03-20T05:01:43;24.15;;;12.35;;
69894;SDS011;57172;52.034;5.090;2023-03-20T05:04:10;24.42;;;12.98;;
69894;SDS011;57172;52.034;5.090;2023-03-20T05:06:37;27.48;;;13.85;;
69894;SDS011;57172;52.034;5.090;2023-03-20T05:09:04;21.07;;;10.67;;
69894;SDS011;57172;52.034;5.090;2023-03-20T05:11:33;25.02;;;12.18;;
69894;SDS011;57172;52.034;5.090;2023-03-20T05:14:03;26.67;;;13.50;;
69894;SDS011;57172;52.034;5.090;2023-03-20T05:16:30;27.00;;;13.15;;
69894;SDS011;57172;52.034;5.090;2023-03-20T05:19:29;21.55;;;10.82;;
69894;SDS011;57172;52.034;5.090;2023-03-20T05:22:18;26.23;;;12.30;;
69894;SDS011;57172;52.034;5.090;2023-03-20T05:25:15;27.02;;;13.50;;
69894;SDS011;57172;52.034;5.090;2023-03-20T05:28:01;27.88;;;13.57;;
69894;SDS011;57172;52.034;5.090;2023-03-20T05:30:51;25.52;;;12.25;;
69894;SDS011;57172;52.034;5.090;2023-03-20T05:33:27;26.33;;;13.40;;
69894;SDS011;57172;52.034;5.090;2023-03-20T05:36:12;26.20;;;12.33;;
69894;SDS011;57172;52.034;5.090;2023-03-20T05:38:58;20.65;;;10.73;;
69894;SDS011;57172;52.034;5.090;2023-03-20T05:41:43;24.83;;;11.85;;
69894;SDS011;57172;52.034;5.090;2023-03-20T05:44:30;28.05;;;12.00;;
69894;SDS011;57172;52.034;5.090;2023-03-20T05:47:15;25.67;;;12.57;;
69894;SDS011;57172;52.034;5.090;2023-03-20T05:49:57;25.20;;;12.47;;
69894;SDS011;57172;52.034;5.090;2023-03-20T05:52:50;24.75;;;11.55;;
69894;SDS011;57172;52.034;5.090;2023-03-20T05:55:40;26.27;;;12.30;;
69894;SDS011;57172;52.034;5.090;2023-03-20T05:58:32;23.92;;;12.63;;
69894;SDS011;57172;52.034;5.090;2023-03-20T06:01:26;22.25;;;12.38;;
69894;SDS011;57172;52.034;5.090;2023-03-20T06:04:09;21.30;;;11.43;;
69894;SDS011;57172;52.034;5.090;2023-03-20T06:07:07;25.63;;;12.98;;
69894;SDS011;57172;52.034;5.090;2023-03-20T06:09:35;23.60;;;12.13;;
69894;SDS011;57172;52.034;5.090;2023-03-20T06:12:07;24.88;;;12.25;;
69894;SDS011;57172;52.034;5.090;2023-03-20T06:14:34;25.10;;;12.63;;
69894;SDS011;57172;52.034;5.090;2023-03-20T06:17:05;20.07;;;9.87;;
69894;SDS011;57172;52.034;5.090;2023-03-20T06:19:32;25.77;;;12.23;;
69894;SDS011;57172;52.034;5.090;2023-03-20T06:21:59;23.20;;;11.52;;
69894;SDS011;57172;52.034;5.090;2023-03-20T06:24:26;26.95;;;12.13;;
69894;SDS011;57172;52.034;5.090;2023-03-20T06:26:53;26.73;;;12.20;;
69894;SDS011;57172;52.034;5.090;2023-03-20T06:29:20;27.37;;;12.63;;
69894;SDS011;57172;52.034;5.090;2023-03-20T06:31:50;23.52;;;10.65;;
69894;SDS011;57172;52.034;5.090;2023-03-20T06:34:24;25.50;;;12.85;;
69894;SDS011;57172;52.034;5.090;2023-03-20T06:36:51;30.33;;;11.82;;
69894;SDS011;57172;52.034;5.090;2023-03-20T06:39:21;27.10;;;11.70;;
69894;SDS011;57172;52.034;5.090;2023-03-20T06:41:48;21.70;;;11.33;;
69894;SDS011;57172;52.034;5.090;2023-03-20T06:44:17;24.10;;;11.35;;
69894;SDS011;57172;52.034;5.090;2023-03-20T06:47:19;23.52;;;10.23;;
69894;SDS011;57172;52.034;5.090;2023-03-20T06:49:47;23.98;;;11.52;;
69894;SDS011;57172;52.034;5.090;2023-03-20T06:52:15;26.60;;;11.63;;
69894;SDS011;57172;52.034;5.090;2023-03-20T06:54:53;29.67;;;11.67;;
69894;SDS011;57172;52.034;5.090;2023-03-20T06:57:21;24.65;;;10.55;;
69894;SDS011;57172;52.034;5.090;2023-03-20T06:59:48;22.67;;;9.88;;
69894;SDS011;57172;52.034;5.090;2023-03-20T07:02:15;20.25;;;9.32;;
69894;SDS011;57172;52.034;5.090;2023-03-20T07:04:43;25.75;;;10.30;;
69894;SDS011;57172;52.034;5.090;2023-03-20T07:07:10;25.90;;;10.73;;
69894;SDS011;57172;52.034;5.090;2023-03-20T07:09:37;20.23;;;9.57;;
69894;SDS011;57172;52.034;5.090;2023-03-20T07:12:09;23.02;;;10.68;;
69894;SDS011;57172;52.034;5.090;2023-03-20T07:14:41;22.27;;;8.85;;
69894;SDS011;57172;52.034;5.090;2023-03-20T07:17:12;22.05;;;10.73;;
69894;SDS011;57172;52.034;5.090;2023-03-20T07:19:39;22.53;;;9.83;;
69894;SDS011;57172;52.034;5.090;2023-03-20T07:22:08;23.27;;;8.98;;
69894;SDS011;57172;52.034;5.090;2023-03-20T07:24:45;26.17;;;9.68;;
69894;SDS011;57172;52.034;5.090;2023-03-20T07:27:13;26.25;;;10.40;;
69894;SDS011;57172;52.034;5.090;2023-03-20T07:29:43;26.20;;;9.68;;
69894;SDS011;57172;52.034;5.090;2023-03-20T07:32:16;23.13;;;9.33;;
69894;SDS011;57172;52.034;5.090;2023-03-20T07:34:47;23.45;;;9.75;;
69894;SDS011;57172;52.034;5.090;2023-03-20T07:37:17;20.58;;;7.88;;
69894;SDS011;57172;52.034;5.090;2023-03-20T07:39:55;16.70;;;7.40;;
69894;SDS011;57172;52.034;5.090;2023-03-20T07:42:30;22.77;;;8.43;;
69894;SDS011;57172;52.034;5.090;2023-03-20T07:45:05;18.20;;;8.80;;
69894;SDS011;57172;52.034;5.090;2023-03-20T07:47:33;25.85;;;9.25;;
69894;SDS011;57172;52.034;5.090;2023-03-20T07:50:02;20.10;;;9.02;;
69894;SDS011;57172;52.034;5.090;2023-03-20T07:52:33;24.50;;;8.40;;
69894;SDS011;57172;52.034;5.090;2023-03-20T07:55:00;21.45;;;8.75;;
69894;SDS011;57172;52.034;5.090;2023-03-20T07:57:27;18.73;;;7.97;;
69894;SDS011;57172;52.034;5.090;2023-03-20T07:59:55;18.77;;;8.52;;
69894;SDS011;57172;52.034;5.090;2023-03-20T08:02:22;22.10;;;8.82;;
69894;SDS011;57172;52.034;5.090;2023-03-20T08:04:49;18.52;;;7.47;;
69894;SDS011;57172;52.034;5.090;2023-03-20T08:07:16;23.33;;;7.95;;
69894;SDS011;57172;52.034;5.090;2023-03-20T08:09:43;16.47;;;7.77;;
69894;SDS011;57172;52.034;5.090;2023-03-20T08:12:09;17.48;;;7.20;;
69894;SDS011;57172;52.034;5.090;2023-03-20T08:14:36;18.33;;;6.80;;
69894;SDS011;57172;52.034;5.090;2023-03-20T08:17:04;19.75;;;6.53;;
69894;SDS011;57172;52.034;5.090;2023-03-20T08:19:41;17.05;;;7.07;;
69894;SDS011;57172;52.034;5.090;2023-03-20T08:22:08;17.60;;;7.17;;
69894;SDS011;57172;52.034;5.090;2023-03-20T08:24:35;16.70;;;6.88;;
69894;SDS011;57172;52.034;5.090;2023-03-20T08:27:02;16.45;;;6.78;;
69894;SDS011;57172;52.034;5.090;2023-03-20T08:29:29;16.25;;;6.90;;
69894;SDS011;57172;52.034;5.090;2023-03-20T08:31:55;16.92;;;7.32;;
69894;SDS011;57172;52.034;5.090;2023-03-20T08:34:23;18.57;;;7.47;;
69894;SDS011;57172;52.034;5.090;2023-03-20T08:36:49;13.13;;;5.78;;
69894;SDS011;57172;52.034;5.090;2023-03-20T08:39:17;18.83;;;7.18;;
69894;SDS011;57172;52.034;5.090;2023-03-20T08:41:44;15.18;;;6.13;;
69894;SDS011;57172;52.034;5.090;2023-03-20T08:44:12;19.58;;;8.10;;
69894;SDS011;57172;52.034;5.090;2023-03-20T08:46:39;15.57;;;7.10;;
69894;SDS011;57172;52.034;5.090;2023-03-20T08:49:06;21.08;;;8.15;;
69894;SDS011;57172;52.034;5.090;2023-03-20T08:51:33;17.83;;;7.00;;
69894;SDS011;57172;52.034;5.090;2023-03-20T08:53:59;17.83;;;7.80;;
69894;SDS011;57172;52.034;5.090;2023-03-20T08:56:26;19.85;;;7.88;;
69894;SDS011;57172;52.034;5.090;2023-03-20T08:58:53;17.23;;;6.87;;
69894;SDS011;57172;52.034;5.090;2023-03-20T09:01:21;17.75;;;7.72;;
69894;SDS011;57172;52.034;5.090;2023-03-20T09:03:53;17.02;;;7.15;;
69894;SDS011;57172;52.034;5.090;2023-03-20T09:06:20;16.25;;;7.03;;
69894;SDS011;57172;52.034;5.090;2023-03-20T09:08:47;20.95;;;8.35;;
69894;SDS011;57172;52.034;5.090;2023-03-20T09:11:14;15.53;;;6.70;;
69894;SDS011;57172;52.034;5.090;2023-03-20T09:13:41;20.88;;;7.72;;
69894;SDS011;57172;52.034;5.090;2023-03-20T09:16:08;15.75;;;7.93;;
69894;SDS011;57172;52.034;5.090;2023-03-20T09:18:35;19.08;;;7.22;;
69894;SDS011;57172;52.034;5.090;2023-03-20T09:21:02;13.00;;;6.32;;
69894;SDS011;57172;52.034;5.090;2023-03-20T09:23:29;16.43;;;6.73;;
69894;SDS011;57172;52.034;5.090;2023-03-20T09:25:57;16.40;;;6.63;;
69894;SDS011;57172;52.034;5.090;2023-03-20T09:28:24;13.90;;;5.97;;
69894;SDS011;57172;52.034;5.090;2023-03-20T09:30:55;19.50;;;7.20;;
69894;SDS011;57172;52.034;5.090;2023-03-20T09:33:24;16.25;;;7.32;;
69894;SDS011;57172;52.034;5.090;2023-03-20T09:35:51;19.97;;;7.17;;
69894;SDS011;57172;52.034;5.090;2023-03-20T09:38:18;21.05;;;6.72;;
69894;SDS011;57172;52.034;5.090;2023-03-20T09:40:53;17.75;;;7.40;;
69894;SDS011;57172;52.034;5.090;2023-03-20T09:43:25;17.23;;;5.47;;
69894;SDS011;57172;52.034;5.090;2023-03-20T09:53:57;18.85;;;6.65;;
69894;SDS011;57172;52.034;5.090;2023-03-20T09:56:28;16.48;;;7.05;;
69894;SDS011;57172;52.034;5.090;2023-03-20T09:59:01;17.05;;;5.55;;
69894;SDS011;57172;52.034;5.090;2023-03-20T10:04:22;16.45;;;7.10;;
69894;SDS011;57172;52.034;5.090;2023-03-20T10:06:53;19.08;;;6.97;;
69894;SDS011;57172;52.034;5.090;2023-03-20T10:09:23;14.13;;;5.55;;
69894;SDS011;57172;52.034;5.090;2023-03-20T10:12:01;12.20;;;5.50;;
69894;SDS011;57172;52.034;5.090;2023-03-20T10:14:46;14.70;;;6.40;;
69894;SDS011;57172;52.034;5.090;2023-03-20T10:22:41;13.90;;;5.15;;
69894;SDS011;57172;52.034;5.090;2023-03-20T10:33:48;15.98;;;6.55;;
69894;SDS011;57172;52.034;5.090;2023-03-20T10:42:22;18.80;;;7.63;;
69894;SDS011;57172;52.034;5.090;2023-03-20T10:47:48;18.73;;;8.27;;
69894;SDS011;57172;52.034;5.090;2023-03-20T10:50:18;18.45;;;7.30;;
69894;SDS011;57172;52.034;5.090;2023-03-20T10:52:50;16.58;;;7.95;;
69894;SDS011;57172;52.034;5.090;2023-03-20T10:55:21;21.37;;;8.77;;
69894;SDS011;57172;52.034;5.090;2023-03-20T10:58:01;19.65;;;9.02;;
69894;SDS011;57172;52.034;5.090;2023-03-20T11:00:34;21.48;;;10.30;;
69894;SDS011;57172;52.034;5.090;2023-03-20T11:03:01;23.38;;;10.35;;
69894;SDS011;57172;52.034;5.090;2023-03-20T11:05:42;17.23;;;9.23;;
69894;SDS011;57172;52.034;5.090;2023-03-20T11:08:30;19.30;;;10.87;;
69894;SDS011;57172;52.034;5.090;2023-03-20T11:11:04;21.73;;;9.50;;
69894;SDS011;57172;52.034;5.090;2023-03-20T11:13:35;21.58;;;9.65;;
69894;SDS011;57172;52.034;5.090;2023-03-20T11:18:47;24.45;;;11.25;;
69894;SDS011;57172;52.034;5.090;2023-03-20T11:21:17;23.33;;;11.00;;
69894;SDS011;57172;52.034;5.090;2023-03-20T11:23:50;23.70;;;10.55;;
69894;SDS011;57172;52.034;5.090;2023-03-20T11:26:18;23.05;;;9.77;;
69894;SDS011;57172;52.034;5.090;2023-03-20T11:29:15;28.88;;;11.75;;
69894;SDS011;57172;52.034;5.090;2023-03-20T11:34:47;22.63;;;10.00;;
69894;SDS011;57172;52.034;5.090;2023-03-20T11:37:20;29.20;;;11.30;;
69894;SDS011;57172;52.034;5.090;2023-03-20T11:39:58;23.40;;;10.93;;
69894;SDS011;57172;52.034;5.090;2023-03-20T11:42:32;20.42;;;10.80;;
69894;SDS011;57172;52.034;5.090;2023-03-20T11:45:01;18.45;;;9.82;;
69894;SDS011;57172;52.034;5.090;2023-03-20T11:47:49;26.17;;;10.73;;
69894;SDS011;57172;52.034;5.090;2023-03-20T11:50:26;26.08;;;13.60;;
69894;SDS011;57172;52.034;5.090;2023-03-20T11:53:16;24.90;;;10.63;;
69894;SDS011;57172;52.034;5.090;2023-03-20T11:56:49;19.63;;;10.35;;
69894;SDS011;57172;52.034;5.090;2023-03-20T12:04:18;25.95;;;10.98;;
69894;SDS011;57172;52.034;5.090;2023-03-20T12:06:55;23.10;;;11.90;;
69894;SDS011;57172;52.034;5.090;2023-03-20T12:09:30;25.17;;;11.75;;
69894;SDS011;57172;52.034;5.090;2023-03-20T12:12:07;21.52;;;11.00;;
69894;SDS011;57172;52.034;5.090;2023-03-20T12:14:50;23.30;;;10.33;;
69894;SDS011;57172;52.034;5.090;2023-03-20T12:17:49;22.83;;;10.85;;
69894;SDS011;57172;52.034;5.090;2023-03-20T12:26:05;22.90;;;10.55;;
69894;SDS011;57172;52.034;5.090;2023-03-20T12:28:53;25.90;;;11.90;;
69894;SDS011;57172;52.034;5.090;2023-03-20T12:32:02;22.10;;;10.50;;
69894;SDS011;57172;52.034;5.090;2023-03-20T12:34:37;22.30;;;10.90;;
69894;SDS011;57172;52.034;5.090;2023-03-20T12:37:09;21.83;;;10.48;;
69894;SDS011;57172;52.034;5.090;2023-03-20T12:39:37;26.17;;;12.00;;
69894;SDS011;57172;52.034;5.090;2023-03-20T12:45:18;18.40;;;10.15;;
69894;SDS011;57172;52.034;5.090;2023-03-20T12:53:10;24.42;;;9.45;;
69894;SDS011;57172;52.034;5.090;2023-03-20T12:55:45;26.47;;;10.83;;
69894;SDS011;57172;52.034;5.090;2023-03-20T13:06:52;28.88;;;11.88;;
69894;SDS011;57172;52.034;5.090;2023-03-20T13:14:46;27.60;;;10.90;;
69894;SDS011;57172;52.034;5.090;2023-03-20T13:17:28;25.27;;;10.95;;
69894;SDS011;57172;52.034;5.090;2023-03-20T13:34:24;24.90;;;10.02;;
69894;SDS011;57172;52.034;5.090;2023-03-20T13:42:33;28.00;;;12.52;;
69894;SDS011;57172;52.034;5.090;2023-03-20T13:45:05;30.42;;;13.93;;
69894;SDS011;57172;52.034;5.090;2023-03-20T13:47:47;28.88;;;12.98;;
69894;SDS011;57172;52.034;5.090;2023-03-20T13:50:38;27.43;;;13.00;;
69894;SDS011;57172;52.034;5.090;2023-03-20T13:53:21;28.33;;;11.85;;
69894;SDS011;57172;52.034;5.090;2023-03-20T13:56:05;25.98;;;13.18;;
69894;SDS011;57172;52.034;5.090;2023-03-20T14:01:10;30.15;;;13.25;;
69894;SDS011;57172;52.034;5.090;2023-03-20T14:03:47;29.97;;;13.23;;
69894;SDS011;57172;52.034;5.090;2023-03-20T14:06:17;23.10;;;10.80;;
69894;SDS011;57172;52.034;5.090;2023-03-20T14:08:48;24.08;;;11.23;;
69894;SDS011;57172;52.034;5.090;2023-03-20T14:13:56;29.08;;;13.02;;
69894;SDS011;57172;52.034;5.090;2023-03-20T14:16:26;23.17;;;12.13;;
69894;SDS011;57172;52.034;5.090;2023-03-20T14:19:04;30.65;;;13.27;;
69894;SDS011;57172;52.034;5.090;2023-03-20T14:21:49;24.98;;;9.82;;
69894;SDS011;57172;52.034;5.090;2023-03-20T14:24:18;20.00;;;10.35;;
69894;SDS011;57172;52.034;5.090;2023-03-20T14:26:51;25.95;;;11.05;;
69894;SDS011;57172;52.034;5.090;2023-03-20T14:32:02;22.70;;;10.73;;
69894;SDS011;57172;52.034;5.090;2023-03-20T14:34:49;23.83;;;10.07;;
69894;SDS011;57172;52.034;5.090;2023-03-20T14:37:28;28.98;;;11.93;;
69894;SDS011;57172;52.034;5.090;2023-03-20T14:40:03;23.33;;;11.70;;
69894;SDS011;57172;52.034;5.090;2023-03-20T14:45:26;29.88;;;12.82;;
69894;SDS011;57172;52.034;5.090;2023-03-20T14:53:21;23.70;;;12.63;;
69894;SDS011;57172;52.034;5.090;2023-03-20T15:03:46;21.40;;;9.85;;
69894;SDS011;57172;52.034;5.090;2023-03-20T15:06:27;27.70;;;12.75;;
69894;SDS011;57172;52.034;5.090;2023-03-20T15:08:58;25.37;;;11.77;;
69894;SDS011;57172;52.034;5.090;2023-03-20T15:11:32;29.40;;;13.77;;
69894;SDS011;57172;52.034;5.090;2023-03-20T15:14:00;30.38;;;14.20;;
69894;SDS011;57172;52.034;5.090;2023-03-20T15:16:31;32.10;;;13.50;;
69894;SDS011;57172;52.034;5.090;2023-03-20T15:19:00;26.42;;;12.88;;
69894;SDS011;57172;52.034;5.090;2023-03-20T15:21:36;30.90;;;14.40;;
69894;SDS011;57172;52.034;5.090;2023-03-20T15:24:06;26.35;;;13.27;;
69894;SDS011;57172;52.034;5.090;2023-03-20T15:26:33;30.50;;;13.60;;
69894;SDS011;57172;52.034;5.090;2023-03-20T15:29:02;37.65;;;15.73;;
69894;SDS011;57172;52.034;5.090;2023-03-20T15:31:33;40.83;;;15.65;;
69894;SDS011;57172;52.034;5.090;2023-03-20T15:34:20;35.67;;;15.27;;
69894;SDS011;57172;52.034;5.090;2023-03-20T15:36:50;38.40;;;14.45;;
69894;SDS011;57172;52.034;5.090;2023-03-20T15:39:22;33.13;;;14.88;;
69894;SDS011;57172;52.034;5.090;2023-03-20T15:41:58;39.80;;;14.70;;
69894;SDS011;57172;52.034;5.090;2023-03-20T15:44:39;30.25;;;13.10;;
69894;SDS011;57172;52.034;5.090;2023-03-20T15:47:15;25.83;;;12.83;;
69894;SDS011;57172;52.034;5.090;2023-03-20T15:49:48;31.60;;;13.57;;
69894;SDS011;57172;52.034;5.090;2023-03-20T15:52:26;33.85;;;14.35;;
69894;SDS011;57172;52.034;5.090;2023-03-20T15:55:10;32.00;;;13.63;;
69894;SDS011;57172;52.034;5.090;2023-03-20T15:57:42;21.88;;;9.57;;
69894;SDS011;57172;52.034;5.090;2023-03-20T16:00:16;29.80;;;14.33;;
69894;SDS011;57172;52.034;5.090;2023-03-20T16:02:48;34.72;;;14.45;;
69894;SDS011;57172;52.034;5.090;2023-03-20T16:05:16;34.10;;;14.32;;
69894;SDS011;57172;52.034;5.090;2023-03-20T16:07:44;35.88;;;15.15;;
69894;SDS011;57172;52.034;5.090;2023-03-20T16:10:15;38.03;;;13.90;;
69894;SDS011;57172;52.034;5.090;2023-03-20T16:12:49;35.73;;;15.30;;
69894;SDS011;57172;52.034;5.090;2023-03-20T16:15:23;31.60;;;13.32;;
69894;SDS011;57172;52.034;5.090;2023-03-20T16:17:55;38.15;;;14.98;;
69894;SDS011;57172;52.034;5.090;2023-03-20T16:20:24;27.55;;;12.70;;
69894;SDS011;57172;52.034;5.090;2023-03-20T16:22:58;24.85;;;10.68;;
69894;SDS011;57172;52.034;5.090;2023-03-20T16:25:28;31.77;;;13.07;;
69894;SDS011;57172;52.034;5.090;2023-03-20T16:27:55;33.15;;;13.68;;
69894;SDS011;57172;52.034;5.090;2023-03-20T16:30:24;32.17;;;14.57;;
69894;SDS011;57172;52.034;5.090;2023-03-20T16:32:59;33.65;;;14.77;;
69894;SDS011;57172;52.034;5.090;2023-03-20T16:35:36;32.33;;;13.50;;
69894;SDS011;57172;52.034;5.090;2023-03-20T16:38:22;38.30;;;14.30;;
69894;SDS011;57172;52.034;5.090;2023-03-20T16:41:21;35.10;;;12.35;;
69894;SDS011;57172;52.034;5.090;2023-03-20T16:43:55;32.65;;;13.30;;
69894;SDS011;57172;52.034;5.090;2023-03-20T16:46:23;39.00;;;14.95;;
69894;SDS011;57172;52.034;5.090;2023-03-20T16:48:56;32.95;;;14.93;;
69894;SDS011;57172;52.034;5.090;2023-03-20T16:51:31;33.70;;;13.60;;
69894;SDS011;57172;52.034;5.090;2023-03-20T16:53:59;41.58;;;14.25;;
69894;SDS011;57172;52.034;5.090;2023-03-20T16:56:34;39.92;;;14.80;;
69894;SDS011;57172;52.034;5.090;2023-03-20T16:59:06;45.88;;;14.68;;
69894;SDS011;57172;52.034;5.090;2023-03-20T17:01:35;43.35;;;15.48;;
69894;SDS011;57172;52.034;5.090;2023-03-20T17:06:54;36.10;;;14.18;;
69894;SDS011;57172;52.034;5.090;2023-03-20T17:09:26;32.38;;;13.52;;
69894;SDS011;57172;52.034;5.090;2023-03-20T17:11:57;33.97;;;13.05;;
69894;SDS011;57172;52.034;5.090;2023-03-20T17:14:28;31.42;;;14.30;;
69894;SDS011;57172;52.034;5.090;2023-03-20T17:16:55;36.17;;;14.00;;
69894;SDS011;57172;52.034;5.090;2023-03-20T17:19:23;44.70;;;14.55;;
69894;SDS011;57172;52.034;5.090;2023-03-20T17:21:51;36.05;;;14.88;;
69894;SDS011;57172;52.034;5.090;2023-03-20T17:24:18;40.28;;;15.73;;
69894;SDS011;57172;52.034;5.090;2023-03-20T17:26:48;34.75;;;13.75;;
69894;SDS011;57172;52.034;5.090;2023-03-20T17:29:20;31.07;;;13.80;;
69894;SDS011;57172;52.034;5.090;2023-03-20T17:31:46;38.50;;;15.45;;
69894;SDS011;57172;52.034;5.090;2023-03-20T17:34:13;37.40;;;14.15;;
69894;SDS011;57172;52.034;5.090;2023-03-20T17:36:40;36.90;;;14.07;;
69894;SDS011;57172;52.034;5.090;2023-03-20T17:39:09;36.42;;;14.68;;
69894;SDS011;57172;52.034;5.090;2023-03-20T17:41:43;29.00;;;14.43;;
69894;SDS011;57172;52.034;5.090;2023-03-20T17:44:12;39.65;;;13.75;;
69894;SDS011;57172;52.034;5.090;2023-03-20T17:46:39;28.98;;;11.63;;
69894;SDS011;57172;52.034;5.090;2023-03-20T17:49:22;32.15;;;14.60;;
69894;SDS011;57172;52.034;5.090;2023-03-20T17:51:53;41.63;;;15.13;;